createdAt,value
2022-09-18T00:01:32.311Z,12.90
2022-09-18T00:04:02.046Z,12.90
2022-09-18T00:06:32.236Z,12.90
2022-09-18T00:09:02.192Z,12.90
2022-09-18T00:11:34.749Z,12.90
2022-09-18T00:14:05.140Z,13.00
2022-09-18T00:16:33.116Z,13.00
2022-09-18T00:19:01.415Z,13.10
2022-09-18T00:21:31.803Z,13.40
2022-09-18T00:24:01.513Z,13.20
2022-09-18T00:26:30.498Z,13.00
2022-09-18T00:28:59.578Z,13.10
2022-09-18T00:31:31.591Z,13.00
2022-09-18T00:34:00.974Z,13.10
2022-09-18T00:36:29.884Z,13.10
2022-09-18T00:38:59.291Z,13.20
2022-09-18T00:41:29.283Z,13.20
2022-09-18T00:44:35.343Z,13.20
2022-09-18T00:47:15.407Z,13.20
2022-09-18T00:49:46.973Z,13.30
2022-09-18T00:52:16.738Z,13.30
2022-09-18T00:54:47.690Z,13.20
2022-09-18T00:57:18.729Z,13.20
2022-09-18T00:59:51.951Z,13.20
2022-09-18T01:02:20.178Z,13.50
2022-09-18T01:04:49.078Z,13.20
2022-09-18T01:07:29.165Z,13.20
2022-09-18T01:10:09.673Z,13.20
2022-09-18T01:12:43.990Z,13.20
2022-09-18T01:15:18.453Z,13.20
2022-09-18T01:17:52.332Z,13.10
2022-09-18T01:20:37.637Z,13.20
2022-09-18T01:23:28.878Z,13.10
2022-09-18T01:26:06.697Z,13.10
2022-09-18T01:28:40.587Z,13.00
2022-09-18T01:31:21.022Z,13.00
2022-09-18T01:33:53.823Z,13.00
2022-09-18T01:36:25.665Z,13.00
2022-09-18T01:38:57.474Z,13.10
2022-09-18T01:41:27.493Z,13.10
2022-09-18T01:44:01.293Z,13.00
2022-09-18T01:46:30.591Z,13.10
2022-09-18T01:49:03.902Z,13.10
2022-09-18T01:51:37.340Z,13.20
2022-09-18T01:54:12.743Z,13.30
2022-09-18T01:56:45.539Z,13.30
2022-09-18T01:59:18.630Z,13.30
2022-09-18T02:01:49.958Z,13.70
2022-09-18T02:04:21.762Z,13.40
2022-09-18T02:06:55.370Z,13.40
2022-09-18T02:09:23.377Z,13.50
2022-09-18T02:11:56.474Z,13.50
2022-09-18T02:14:29.569Z,13.50
2022-09-18T02:17:01.806Z,13.60
2022-09-18T02:19:33.756Z,13.70
2022-09-18T02:22:06.676Z,13.50
2022-09-18T02:24:38.287Z,13.40
2022-09-18T02:27:09.781Z,13.50
2022-09-18T02:29:39.790Z,13.60
2022-09-18T02:32:07.706Z,13.60
2022-09-18T02:34:36.186Z,13.60
2022-09-18T02:37:16.471Z,13.50
2022-09-18T02:39:58.849Z,13.60
2022-09-18T02:42:36.704Z,13.70
2022-09-18T02:45:15.125Z,13.80
2022-09-18T02:47:56.813Z,13.80
2022-09-18T02:50:32.534Z,13.90
2022-09-18T02:53:05.230Z,13.70
2022-09-18T02:55:41.713Z,13.70
2022-09-18T02:58:16.942Z,13.70
2022-09-18T03:00:49.230Z,13.80
2022-09-18T03:03:18.832Z,13.80
2022-09-18T03:05:46.989Z,13.90
2022-09-18T03:08:14.901Z,13.90
2022-09-18T03:10:43.223Z,13.90
2022-09-18T03:13:13.589Z,13.90
2022-09-18T03:15:41.690Z,13.90
2022-09-18T03:18:11.841Z,13.90
2022-09-18T03:20:41.743Z,13.90
2022-09-18T03:23:09.711Z,13.90
2022-09-18T03:25:37.854Z,13.90
2022-09-18T03:28:05.829Z,13.80
2022-09-18T03:30:33.830Z,13.90
2022-09-18T03:33:01.720Z,14.00
2022-09-18T03:35:32.286Z,14.20
2022-09-18T03:38:00.163Z,13.80
2022-09-18T03:40:29.392Z,13.80
2022-09-18T03:42:57.358Z,13.80
2022-09-18T03:45:25.335Z,13.70
2022-09-18T03:47:53.370Z,13.70
2022-09-18T03:50:21.326Z,13.70
2022-09-18T03:52:51.719Z,13.70
2022-09-18T03:55:20.074Z,13.70
2022-09-18T03:57:48.186Z,13.60
2022-09-18T04:00:16.497Z,13.60
2022-09-18T04:02:45.081Z,13.60
2022-09-18T04:05:13.073Z,13.60
2022-09-18T04:07:41.005Z,13.60
2022-09-18T04:10:11.394Z,13.50
2022-09-18T04:12:39.512Z,13.40
2022-09-18T04:15:08.550Z,14.10
2022-09-18T04:17:36.446Z,13.40
2022-09-18T04:20:05.175Z,13.40
2022-09-18T04:22:33.137Z,13.40
2022-09-18T04:25:01.229Z,13.40
2022-09-18T04:27:30.567Z,13.30
2022-09-18T04:29:58.478Z,13.30
2022-09-18T04:32:26.503Z,13.30
2022-09-18T04:34:54.454Z,13.30
2022-09-18T04:37:22.555Z,13.20
2022-09-18T04:39:50.530Z,13.20
2022-09-18T04:42:18.440Z,13.20
2022-09-18T04:44:47.679Z,13.20
2022-09-18T04:47:15.630Z,13.30
2022-09-18T04:49:43.548Z,13.20
2022-09-18T04:52:11.658Z,13.30
2022-09-18T04:54:39.594Z,13.30
2022-09-18T04:57:07.569Z,13.20
2022-09-18T04:59:35.504Z,13.20
2022-09-18T05:02:05.267Z,13.20
2022-09-18T05:04:33.215Z,13.20
2022-09-18T05:07:01.588Z,13.40
2022-09-18T05:09:29.684Z,13.20
2022-09-18T05:11:57.921Z,13.20
2022-09-18T05:14:25.861Z,13.20
2022-09-18T05:16:53.759Z,13.20
2022-09-18T05:19:23.201Z,13.20
2022-09-18T05:21:51.313Z,13.10
2022-09-18T05:24:19.393Z,13.00
2022-09-18T05:26:47.364Z,12.90
2022-09-18T05:29:15.309Z,12.90
2022-09-18T05:31:43.316Z,12.90
2022-09-18T05:34:11.345Z,12.90
2022-09-18T05:36:40.625Z,13.00
2022-09-18T05:39:08.541Z,12.90
2022-09-18T05:41:36.408Z,12.90
2022-09-18T05:44:04.566Z,12.90
2022-09-18T05:46:32.478Z,12.80
2022-09-18T05:49:00.894Z,12.80
2022-09-18T05:51:28.745Z,12.80
2022-09-18T05:53:58.012Z,12.80
2022-09-18T05:56:27.243Z,12.80
2022-09-18T05:58:55.316Z,12.80
2022-09-18T06:01:23.554Z,12.90
2022-09-18T06:03:51.629Z,13.00
2022-09-18T06:06:19.559Z,13.00
2022-09-18T06:08:47.477Z,13.00
2022-09-18T06:11:16.700Z,13.00
2022-09-18T06:13:44.739Z,13.10
2022-09-18T06:16:12.778Z,13.20
2022-09-18T06:18:40.660Z,13.20
2022-09-18T06:21:08.926Z,14.20
2022-09-18T06:23:37.098Z,13.30
2022-09-18T06:26:09.351Z,13.30
2022-09-18T06:28:40.694Z,13.40
2022-09-18T06:31:08.624Z,13.40
2022-09-18T06:33:36.651Z,13.50
2022-09-18T06:36:08.860Z,13.70
2022-09-18T06:38:36.758Z,13.70
2022-09-18T06:41:04.658Z,13.70
2022-09-18T06:43:32.623Z,13.70
2022-09-18T06:46:01.922Z,13.80
2022-09-18T06:48:30.238Z,13.80
2022-09-18T06:50:59.649Z,13.80
2022-09-18T06:53:28.001Z,13.80
2022-09-18T06:56:00.339Z,13.80
2022-09-18T06:58:28.207Z,13.80
2022-09-18T07:00:56.206Z,14.70
2022-09-18T07:03:25.576Z,13.80
2022-09-18T07:05:53.445Z,13.80
2022-09-18T07:08:21.283Z,13.80
2022-09-18T07:10:49.258Z,13.80
2022-09-18T07:13:17.128Z,14.30
2022-09-18T07:15:48.626Z,13.80
2022-09-18T07:18:16.567Z,13.90
2022-09-18T07:20:45.829Z,13.80
2022-09-18T07:23:13.770Z,13.80
2022-09-18T07:25:41.850Z,13.80
2022-09-18T07:28:11.736Z,13.90
2022-09-18T07:30:40.826Z,13.80
2022-09-18T07:33:10.313Z,13.70
2022-09-18T07:35:38.249Z,13.70
2022-09-18T07:38:09.106Z,13.60
2022-09-18T07:40:37.734Z,13.40
2022-09-18T07:43:07.650Z,13.20
2022-09-18T07:45:36.306Z,13.70
2022-09-18T07:48:06.237Z,13.30
2022-09-18T07:50:34.468Z,13.40
2022-09-18T07:53:05.173Z,13.40
2022-09-18T07:55:36.900Z,13.50
2022-09-18T07:58:07.108Z,13.50
2022-09-18T08:00:37.540Z,13.50
2022-09-18T08:03:06.853Z,13.60
2022-09-18T08:05:34.801Z,13.60
2022-09-18T08:08:06.229Z,13.60
2022-09-18T08:10:36.349Z,13.60
2022-09-18T08:13:04.957Z,13.50
2022-09-18T08:15:34.179Z,13.60
2022-09-18T08:18:02.012Z,13.50
2022-09-18T08:20:29.935Z,13.60
2022-09-18T08:22:58.542Z,13.60
2022-09-18T08:25:28.176Z,13.60
2022-09-18T08:28:00.067Z,13.70
2022-09-18T08:30:28.309Z,13.70
2022-09-18T08:33:00.076Z,13.80
2022-09-18T08:35:28.369Z,13.80
2022-09-18T08:37:56.594Z,13.90
2022-09-18T08:40:34.917Z,13.90
2022-09-18T08:43:10.549Z,14.00
2022-09-18T08:45:51.891Z,14.00
2022-09-18T08:48:26.382Z,14.10
2022-09-18T08:51:00.490Z,14.10
2022-09-18T08:53:34.654Z,14.10
2022-09-18T08:56:05.095Z,14.20
2022-09-18T08:58:39.367Z,14.30
2022-09-18T09:01:10.384Z,14.30
2022-09-18T09:03:49.515Z,14.30
2022-09-18T09:06:28.410Z,14.40
2022-09-18T09:09:31.483Z,14.50
2022-09-18T09:12:09.789Z,14.50
2022-09-18T09:14:58.214Z,14.60
2022-09-18T09:17:41.739Z,14.60
2022-09-18T09:20:21.676Z,14.70
2022-09-18T09:22:58.217Z,14.80
2022-09-18T09:25:39.128Z,14.80
2022-09-18T09:28:16.698Z,14.90
2022-09-18T09:30:50.113Z,14.90
2022-09-18T09:33:22.949Z,15.00
2022-09-18T09:35:55.218Z,15.10
2022-09-18T09:38:33.035Z,15.30
2022-09-18T09:41:08.387Z,15.20
2022-09-18T09:43:43.596Z,15.10
2022-09-18T09:46:22.848Z,15.00
2022-09-18T09:48:58.105Z,15.00
2022-09-18T09:51:33.475Z,14.90
2022-09-18T09:54:02.458Z,14.90
2022-09-18T09:56:38.764Z,14.80
2022-09-18T09:59:20.034Z,14.70
2022-09-18T10:01:56.383Z,14.70
2022-09-18T10:04:32.735Z,14.80
2022-09-18T10:07:06.794Z,14.50
2022-09-18T10:09:43.562Z,14.50
2022-09-18T10:12:19.401Z,14.50
2022-09-18T10:14:49.955Z,14.50
2022-09-18T10:17:20.976Z,14.60
2022-09-18T10:19:50.162Z,14.50
2022-09-18T10:22:23.283Z,14.60
2022-09-18T10:24:58.034Z,14.60
2022-09-18T10:27:26.029Z,14.60
2022-09-18T10:29:54.732Z,14.50
2022-09-18T10:32:38.002Z,14.50
2022-09-18T10:35:41.396Z,14.50
2022-09-18T10:38:27.946Z,14.50
2022-09-18T10:40:55.861Z,14.60
2022-09-18T10:43:24.775Z,14.60
2022-09-18T10:45:54.201Z,14.70
2022-09-18T10:48:26.013Z,14.60
2022-09-18T10:50:54.629Z,14.60
2022-09-18T10:53:29.846Z,14.60
2022-09-18T10:56:04.888Z,14.30
2022-09-18T10:58:34.259Z,14.30
2022-09-18T11:01:05.935Z,14.30
2022-09-18T11:03:43.904Z,14.20
2022-09-18T11:06:17.936Z,14.70
2022-09-18T11:08:48.947Z,14.00
2022-09-18T11:11:25.095Z,14.00
2022-09-18T11:13:58.217Z,14.00
2022-09-18T11:16:28.729Z,14.10
2022-09-18T11:19:19.369Z,13.80
2022-09-18T11:21:49.287Z,13.80
2022-09-18T11:24:22.573Z,13.70
2022-09-18T11:26:51.735Z,13.60
2022-09-18T11:29:28.414Z,13.60
2022-09-18T11:32:00.081Z,13.70
2022-09-18T11:34:32.972Z,13.60
2022-09-18T11:37:04.812Z,13.60
2022-09-18T11:39:38.726Z,13.50
2022-09-18T11:42:13.389Z,14.10
2022-09-18T11:44:42.029Z,13.60
2022-09-18T11:47:34.213Z,13.70
2022-09-18T11:50:11.934Z,13.80
2022-09-18T11:52:44.297Z,13.80
2022-09-18T11:55:22.128Z,13.90
2022-09-18T11:57:54.469Z,13.80
2022-09-18T12:00:22.944Z,13.80
2022-09-18T12:03:00.299Z,13.80
2022-09-18T12:05:35.216Z,13.90
2022-09-18T12:08:14.855Z,14.00
2022-09-18T12:10:52.522Z,14.00
2022-09-18T12:13:33.834Z,14.10
2022-09-18T12:16:09.797Z,14.00
2022-09-18T12:18:47.882Z,14.10
2022-09-18T12:21:20.556Z,14.10
2022-09-18T12:23:48.484Z,14.10
2022-09-18T12:26:21.645Z,14.20
2022-09-18T12:29:04.274Z,14.20
2022-09-18T12:31:39.290Z,14.10
2022-09-18T12:34:15.313Z,14.10
2022-09-18T12:37:05.177Z,14.10
2022-09-18T12:40:01.656Z,14.10
2022-09-18T12:42:39.152Z,14.20
2022-09-18T12:45:40.461Z,14.10
2022-09-18T12:48:20.335Z,14.20
2022-09-18T12:51:03.153Z,14.10
2022-09-18T12:53:46.489Z,14.20
2022-09-18T12:56:26.402Z,14.10
2022-09-18T12:59:14.113Z,14.00
2022-09-18T13:01:46.973Z,13.90
2022-09-18T13:04:22.531Z,14.00
2022-09-18T13:06:55.723Z,13.90
2022-09-18T13:09:30.902Z,14.40
2022-09-18T13:12:02.990Z,13.80
2022-09-18T13:14:36.083Z,13.70
2022-09-18T13:17:08.978Z,13.60
2022-09-18T13:19:42.163Z,13.50
2022-09-18T13:22:14.934Z,13.50
2022-09-18T13:24:46.758Z,13.40
2022-09-18T13:27:17.845Z,13.50
2022-09-18T13:29:56.685Z,13.50
2022-09-18T13:32:38.004Z,13.40
2022-09-18T13:35:20.490Z,13.50
2022-09-18T13:37:49.294Z,13.50
2022-09-18T13:40:36.951Z,13.40
2022-09-18T13:43:40.716Z,13.40
2022-09-18T13:46:10.345Z,13.40
2022-09-18T13:48:46.536Z,13.60
2022-09-18T13:51:22.002Z,13.40
2022-09-18T13:54:16.861Z,13.40
2022-09-18T13:57:20.293Z,13.50
2022-09-18T13:59:53.969Z,13.40
2022-09-18T14:02:33.381Z,13.40
2022-09-18T14:05:27.494Z,13.40
2022-09-18T14:08:04.080Z,13.30
2022-09-18T14:10:35.666Z,13.20
2022-09-18T14:13:31.268Z,13.30
2022-09-18T14:16:03.929Z,13.20
2022-09-18T14:18:34.251Z,13.20
2022-09-18T14:21:19.617Z,13.30
2022-09-18T14:24:23.338Z,13.20
2022-09-18T14:27:03.233Z,13.20
2022-09-18T14:29:34.601Z,13.20
2022-09-18T14:32:03.542Z,13.20
2022-09-18T14:34:38.662Z,13.10
2022-09-18T14:37:25.538Z,13.40
2022-09-18T14:39:55.327Z,13.10
2022-09-18T14:42:32.662Z,13.10
2022-09-18T14:45:20.725Z,13.10
2022-09-18T14:47:49.942Z,13.20
2022-09-18T14:50:38.884Z,13.20
2022-09-18T14:53:24.013Z,13.20
2022-09-18T14:55:56.717Z,13.30
2022-09-18T14:58:30.612Z,13.20
2022-09-18T15:01:00.219Z,13.10
2022-09-18T15:03:32.070Z,13.20
2022-09-18T15:06:09.791Z,13.20
2022-09-18T15:08:38.862Z,13.20
2022-09-18T15:11:07.316Z,13.20
2022-09-18T15:13:37.785Z,13.20
2022-09-18T15:16:07.792Z,13.20
2022-09-18T15:18:42.427Z,13.20
2022-09-18T15:21:23.177Z,13.20
2022-09-18T15:23:51.427Z,13.10
2022-09-18T15:26:21.155Z,13.10
2022-09-18T15:28:53.116Z,13.10
2022-09-18T15:31:24.393Z,13.10
2022-09-18T15:33:57.350Z,13.10
2022-09-18T15:36:29.010Z,13.10
2022-09-18T15:38:57.656Z,12.90
2022-09-18T15:41:38.854Z,12.90
2022-09-18T15:44:07.485Z,13.40
2022-09-18T15:46:38.052Z,12.80
2022-09-18T15:49:28.725Z,12.90
2022-09-18T15:51:56.793Z,12.80
2022-09-18T15:54:27.565Z,12.90
2022-09-18T15:56:58.306Z,12.90
2022-09-18T15:59:32.147Z,12.80
2022-09-18T16:02:07.391Z,12.80
2022-09-18T16:04:36.954Z,12.80
2022-09-18T16:07:18.414Z,12.80
2022-09-18T16:09:47.978Z,12.80
2022-09-18T16:12:37.530Z,12.80
2022-09-18T16:15:23.716Z,12.80
2022-09-18T16:18:25.292Z,12.80
2022-09-18T16:21:04.830Z,12.70
2022-09-18T16:23:35.020Z,12.70
2022-09-18T16:26:07.339Z,12.70
2022-09-18T16:28:37.609Z,12.70
2022-09-18T16:31:05.791Z,12.60
2022-09-18T16:33:35.493Z,12.50
2022-09-18T16:36:05.724Z,12.70
2022-09-18T16:38:33.619Z,12.50
2022-09-18T16:41:02.016Z,12.50
2022-09-18T16:43:30.028Z,13.10
2022-09-18T16:45:57.942Z,12.50
2022-09-18T16:48:26.045Z,12.40
2022-09-18T16:50:55.260Z,12.40
2022-09-18T16:53:23.283Z,12.50
2022-09-18T16:55:54.591Z,12.40
2022-09-18T16:58:23.689Z,12.50
2022-09-18T17:00:51.736Z,12.50
2022-09-18T17:03:19.871Z,12.40
2022-09-18T17:05:47.947Z,12.40
2022-09-18T17:08:17.406Z,12.40
2022-09-18T17:10:45.516Z,12.40
2022-09-18T17:13:13.944Z,12.40
2022-09-18T17:15:42.141Z,12.40
2022-09-18T17:18:10.066Z,12.50
2022-09-18T17:20:38.000Z,12.40
2022-09-18T17:23:06.082Z,12.40
2022-09-18T17:25:35.502Z,13.00
2022-09-18T17:28:03.611Z,12.40
2022-09-18T17:30:31.551Z,12.30
2022-09-18T17:32:59.635Z,12.20
2022-09-18T17:35:27.728Z,12.20
2022-09-18T17:37:55.582Z,12.20
2022-09-18T17:40:23.650Z,12.10
2022-09-18T17:42:53.870Z,12.10
2022-09-18T17:45:21.841Z,12.10
2022-09-18T17:47:53.004Z,12.10
2022-09-18T17:50:22.190Z,12.10
2022-09-18T17:52:50.121Z,12.10
2022-09-18T17:55:18.709Z,12.00
2022-09-18T17:57:46.667Z,11.90
2022-09-18T18:00:16.500Z,11.90
2022-09-18T18:02:44.430Z,11.90
2022-09-18T18:05:12.305Z,11.90
2022-09-18T18:07:40.194Z,11.90
2022-09-18T18:10:08.981Z,11.90
2022-09-18T18:12:37.325Z,11.90
2022-09-18T18:15:06.663Z,11.80
2022-09-18T18:17:35.992Z,11.00
2022-09-18T18:20:04.972Z,11.70
2022-09-18T18:22:32.922Z,11.70
2022-09-18T18:25:01.467Z,11.70
2022-09-18T18:27:29.354Z,11.60
2022-09-18T18:29:57.232Z,11.60
2022-09-18T18:32:25.309Z,11.60
2022-09-18T18:34:55.450Z,11.60
2022-09-18T18:37:23.340Z,12.50
2022-09-18T18:39:51.225Z,11.50
2022-09-18T18:42:19.123Z,11.50
2022-09-18T18:44:47.088Z,11.40
2022-09-18T18:47:17.241Z,11.40
2022-09-18T18:49:45.146Z,11.50
2022-09-18T18:52:14.574Z,11.50
2022-09-18T18:54:42.476Z,11.50
2022-09-18T18:57:11.340Z,11.20
2022-09-18T18:59:39.221Z,12.40
2022-09-18T19:02:07.522Z,11.40
2022-09-18T19:04:36.287Z,11.40
2022-09-18T19:07:05.996Z,11.80
2022-09-18T19:09:35.261Z,11.40
2022-09-18T19:12:04.157Z,11.40
2022-09-18T19:14:33.497Z,11.40
2022-09-18T19:17:01.907Z,11.70
2022-09-18T19:19:29.953Z,11.40
2022-09-18T19:21:59.479Z,11.30
2022-09-18T19:24:28.292Z,11.40
2022-09-18T19:26:58.838Z,11.40
2022-09-18T19:29:28.073Z,11.30
2022-09-18T19:31:57.826Z,11.40
2022-09-18T19:34:25.965Z,11.80
2022-09-18T19:36:54.242Z,11.60
2022-09-18T19:39:24.560Z,11.50
2022-09-18T19:41:55.801Z,11.50
2022-09-18T19:44:31.219Z,12.10
2022-09-18T19:47:01.502Z,11.70
2022-09-18T19:49:33.553Z,11.30
2022-09-18T19:52:02.638Z,11.30
2022-09-18T19:54:30.995Z,11.30
2022-09-18T19:56:59.126Z,11.30
2022-09-18T19:59:28.742Z,11.20
2022-09-18T20:01:57.220Z,11.40
2022-09-18T20:04:25.219Z,11.10
2022-09-18T20:06:53.136Z,11.10
2022-09-18T20:09:21.166Z,11.30
2022-09-18T20:11:49.090Z,11.10
2022-09-18T20:14:17.212Z,11.00
2022-09-18T20:16:46.497Z,11.00
2022-09-18T20:19:14.365Z,11.00
2022-09-18T20:21:42.714Z,11.10
2022-09-18T20:24:10.598Z,11.10
2022-09-18T20:26:38.438Z,11.10
2022-09-18T20:29:06.363Z,11.30
2022-09-18T20:31:34.299Z,11.20
2022-09-18T20:34:04.703Z,11.20
2022-09-18T20:36:32.825Z,11.30
2022-09-18T20:39:02.250Z,11.30
2022-09-18T20:41:30.515Z,11.30
2022-09-18T20:43:59.889Z,11.30
2022-09-18T20:46:28.127Z,11.30
2022-09-18T20:48:56.064Z,11.40
2022-09-18T20:51:27.266Z,11.20
2022-09-18T20:53:57.301Z,11.30
2022-09-18T20:56:26.657Z,11.30
2022-09-18T20:58:54.845Z,11.30
2022-09-18T21:01:25.191Z,11.40
2022-09-18T21:03:57.066Z,11.30
2022-09-18T21:06:28.070Z,11.30
2022-09-18T21:08:56.781Z,11.40
2022-09-18T21:11:27.397Z,11.40
2022-09-18T21:13:56.911Z,11.90
2022-09-18T21:16:26.550Z,11.40
2022-09-18T21:18:56.860Z,11.80
2022-09-18T21:21:30.897Z,11.40
2022-09-18T21:24:01.389Z,11.70
2022-09-18T21:26:33.131Z,11.60
2022-09-18T21:29:03.293Z,11.70
2022-09-18T21:31:36.710Z,11.70
2022-09-18T21:34:05.068Z,11.70
2022-09-18T21:36:34.788Z,11.80
2022-09-18T21:39:03.731Z,11.80
2022-09-18T21:41:40.021Z,11.80
2022-09-18T21:44:08.954Z,11.70
2022-09-18T21:46:39.229Z,11.70
2022-09-18T21:49:09.319Z,11.70
2022-09-18T21:51:41.163Z,11.90
2022-09-18T21:54:14.198Z,11.70
2022-09-18T21:56:42.528Z,11.70
2022-09-18T21:59:13.866Z,11.80
2022-09-18T22:01:43.061Z,11.70
2022-09-18T22:04:12.094Z,11.70
2022-09-18T22:06:45.445Z,11.90
2022-09-18T22:09:15.225Z,11.70
2022-09-18T22:11:46.885Z,11.70
2022-09-18T22:14:16.947Z,11.60
2022-09-18T22:16:48.110Z,11.70
2022-09-18T22:19:17.641Z,11.70
2022-09-18T22:21:48.622Z,11.70
2022-09-18T22:24:19.059Z,11.70
2022-09-18T22:26:48.981Z,11.90
2022-09-18T22:29:19.539Z,11.70
2022-09-18T22:31:47.573Z,11.80
2022-09-18T22:34:17.355Z,11.80
2022-09-18T22:36:47.305Z,11.80
2022-09-18T22:39:17.042Z,11.80
2022-09-18T22:41:45.666Z,11.80
2022-09-18T22:44:14.040Z,11.80
2022-09-18T22:46:43.849Z,11.70
2022-09-18T22:49:14.330Z,11.70
2022-09-18T22:51:42.608Z,11.70
2022-09-18T22:54:12.195Z,11.70
2022-09-18T22:56:42.610Z,11.70
2022-09-18T22:59:12.486Z,11.70
2022-09-18T23:01:48.930Z,11.70
2022-09-18T23:04:17.996Z,11.70
2022-09-18T23:06:46.402Z,11.70
2022-09-18T23:09:16.565Z,11.70
2022-09-18T23:11:45.850Z,11.70
2022-09-18T23:14:15.619Z,11.70
2022-09-18T23:16:43.662Z,11.80
2022-09-18T23:19:17.121Z,12.00
2022-09-18T23:21:46.426Z,13.10
2022-09-18T23:24:16.673Z,12.00
2022-09-18T23:26:47.117Z,12.00
2022-09-18T23:29:17.275Z,12.40
2022-09-18T23:31:49.848Z,12.10
2022-09-18T23:34:20.078Z,12.10
2022-09-18T23:36:49.615Z,12.10
2022-09-18T23:39:21.358Z,12.10
2022-09-18T23:41:49.941Z,12.10
2022-09-18T23:44:19.499Z,12.00
2022-09-18T23:46:48.120Z,12.20
2022-09-18T23:49:20.898Z,12.20
2022-09-18T23:51:48.754Z,12.20
2022-09-18T23:54:19.781Z,12.20
2022-09-18T23:56:48.890Z,12.10
2022-09-18T23:59:22.422Z,12.10
